sensor_id;sensor_type;location;lat;lon;timestamp;P1;durP1;ratioP1;P2;durP2;ratioP2
69894;SDS011;57172;52.034;5.090;2022-09-09T00:02:01;3.17;;;1.90;;
69894;SDS011;57172;52.034;5.090;2022-09-09T00:04:38;5.13;;;2.13;;
69894;SDS011;57172;52.034;5.090;2022-09-09T00:12:36;3.83;;;2.00;;
69894;SDS011;57172;52.034;5.090;2022-09-09T00:15:28;3.53;;;1.88;;
69894;SDS011;57172;52.034;5.090;2022-09-09T00:21:10;5.80;;;2.30;;
69894;SDS011;57172;52.034;5.090;2022-09-09T00:23:46;5.03;;;1.90;;
69894;SDS011;57172;52.034;5.090;2022-09-09T00:26:41;4.43;;;2.28;;
69894;SDS011;57172;52.034;5.090;2022-09-09T00:29:31;4.47;;;2.10;;
69894;SDS011;57172;52.034;5.090;2022-09-09T00:32:13;4.88;;;2.28;;
69894;SDS011;57172;52.034;5.090;2022-09-09T00:34:49;5.90;;;2.10;;
69894;SDS011;57172;52.034;5.090;2022-09-09T00:37:20;5.13;;;2.20;;
69894;SDS011;57172;52.034;5.090;2022-09-09T00:39:48;4.82;;;2.25;;
69894;SDS011;57172;52.034;5.090;2022-09-09T00:42:18;3.72;;;2.20;;
69894;SDS011;57172;52.034;5.090;2022-09-09T00:50:20;4.07;;;2.40;;
69894;SDS011;57172;52.034;5.090;2022-09-09T00:56:29;6.13;;;2.47;;
69894;SDS011;57172;52.034;5.090;2022-09-09T01:01:54;5.75;;;2.65;;
69894;SDS011;57172;52.034;5.090;2022-09-09T01:04:32;5.90;;;2.50;;
69894;SDS011;57172;52.034;5.090;2022-09-09T01:07:06;5.75;;;2.78;;
69894;SDS011;57172;52.034;5.090;2022-09-09T01:09:54;5.28;;;2.92;;
69894;SDS011;57172;52.034;5.090;2022-09-09T01:12:24;6.45;;;2.20;;
69894;SDS011;57172;52.034;5.090;2022-09-09T01:15:03;6.15;;;2.83;;
69894;SDS011;57172;52.034;5.090;2022-09-09T01:28:19;6.85;;;3.20;;
69894;SDS011;57172;52.034;5.090;2022-09-09T01:30:53;7.83;;;2.90;;
69894;SDS011;57172;52.034;5.090;2022-09-09T01:33:24;7.65;;;3.15;;
69894;SDS011;57172;52.034;5.090;2022-09-09T01:38:24;5.32;;;3.38;;
69894;SDS011;57172;52.034;5.090;2022-09-09T01:40:52;7.10;;;3.58;;
69894;SDS011;57172;52.034;5.090;2022-09-09T01:43:24;7.07;;;3.57;;
69894;SDS011;57172;52.034;5.090;2022-09-09T01:45:53;6.82;;;3.47;;
69894;SDS011;57172;52.034;5.090;2022-09-09T01:48:22;9.80;;;3.70;;
69894;SDS011;57172;52.034;5.090;2022-09-09T01:51:00;7.05;;;3.63;;
69894;SDS011;57172;52.034;5.090;2022-09-09T01:53:27;6.72;;;3.72;;
69894;SDS011;57172;52.034;5.090;2022-09-09T01:58:33;7.70;;;4.07;;
69894;SDS011;57172;52.034;5.090;2022-09-09T02:03:58;9.65;;;4.38;;
69894;SDS011;57172;52.034;5.090;2022-09-09T02:06:35;9.20;;;4.32;;
69894;SDS011;57172;52.034;5.090;2022-09-09T02:09:16;8.70;;;4.20;;
69894;SDS011;57172;52.034;5.090;2022-09-09T02:11:45;7.07;;;4.00;;
69894;SDS011;57172;52.034;5.090;2022-09-09T02:14:25;6.68;;;4.10;;
69894;SDS011;57172;52.034;5.090;2022-09-09T02:17:01;7.82;;;4.30;;
69894;SDS011;57172;52.034;5.090;2022-09-09T02:19:56;9.65;;;4.07;;
69894;SDS011;57172;52.034;5.090;2022-09-09T02:23:07;6.27;;;3.57;;
69894;SDS011;57172;52.034;5.090;2022-09-09T02:25:37;10.55;;;4.07;;
69894;SDS011;57172;52.034;5.090;2022-09-09T02:28:16;7.28;;;3.80;;
69894;SDS011;57172;52.034;5.090;2022-09-09T02:30:44;8.23;;;3.70;;
69894;SDS011;57172;52.034;5.090;2022-09-09T02:33:15;10.65;;;4.20;;
69894;SDS011;57172;52.034;5.090;2022-09-09T02:35:45;8.77;;;3.90;;
69894;SDS011;57172;52.034;5.090;2022-09-09T02:38:16;8.63;;;3.90;;
69894;SDS011;57172;52.034;5.090;2022-09-09T02:40:55;9.75;;;3.90;;
69894;SDS011;57172;52.034;5.090;2022-09-09T02:43:22;8.23;;;3.67;;
69894;SDS011;57172;52.034;5.090;2022-09-09T02:49:01;8.80;;;4.00;;
69894;SDS011;57172;52.034;5.090;2022-09-09T02:51:46;11.68;;;4.90;;
69894;SDS011;57172;52.034;5.090;2022-09-09T02:54:29;9.07;;;4.28;;
69894;SDS011;57172;52.034;5.090;2022-09-09T02:57:21;9.45;;;3.80;;
69894;SDS011;57172;52.034;5.090;2022-09-09T02:59:50;10.82;;;4.20;;
69894;SDS011;57172;52.034;5.090;2022-09-09T03:02:18;13.20;;;4.37;;
69894;SDS011;57172;52.034;5.090;2022-09-09T03:04:51;7.45;;;3.88;;
69894;SDS011;57172;52.034;5.090;2022-09-09T03:07:19;10.50;;;4.20;;
69894;SDS011;57172;52.034;5.090;2022-09-09T03:09:47;8.52;;;4.45;;
69894;SDS011;57172;52.034;5.090;2022-09-09T03:12:15;8.52;;;4.22;;
69894;SDS011;57172;52.034;5.090;2022-09-09T03:14:43;8.20;;;3.90;;
69894;SDS011;57172;52.034;5.090;2022-09-09T03:17:11;9.55;;;4.15;;
69894;SDS011;57172;52.034;5.090;2022-09-09T03:19:45;9.52;;;4.22;;
69894;SDS011;57172;52.034;5.090;2022-09-09T03:22:12;11.25;;;4.38;;
69894;SDS011;57172;52.034;5.090;2022-09-09T03:24:41;11.05;;;4.57;;
69894;SDS011;57172;52.034;5.090;2022-09-09T03:27:08;9.80;;;4.57;;
69894;SDS011;57172;52.034;5.090;2022-09-09T03:29:37;9.13;;;4.70;;
69894;SDS011;57172;52.034;5.090;2022-09-09T03:32:06;10.23;;;4.18;;
69894;SDS011;57172;52.034;5.090;2022-09-09T03:34:37;7.97;;;4.35;;
69894;SDS011;57172;52.034;5.090;2022-09-09T03:37:09;11.40;;;4.78;;
69894;SDS011;57172;52.034;5.090;2022-09-09T03:39:37;9.83;;;4.27;;
69894;SDS011;57172;52.034;5.090;2022-09-09T03:42:05;11.65;;;4.38;;
69894;SDS011;57172;52.034;5.090;2022-09-09T03:44:33;9.20;;;4.45;;
69894;SDS011;57172;52.034;5.090;2022-09-09T03:47:00;7.78;;;4.10;;
69894;SDS011;57172;52.034;5.090;2022-09-09T03:49:27;9.18;;;4.15;;
69894;SDS011;57172;52.034;5.090;2022-09-09T03:51:59;9.20;;;4.50;;
69894;SDS011;57172;52.034;5.090;2022-09-09T03:54:28;8.70;;;4.40;;
69894;SDS011;57172;52.034;5.090;2022-09-09T03:56:55;10.32;;;4.03;;
69894;SDS011;57172;52.034;5.090;2022-09-09T03:59:22;9.50;;;4.38;;
69894;SDS011;57172;52.034;5.090;2022-09-09T04:01:49;8.80;;;4.50;;
69894;SDS011;57172;52.034;5.090;2022-09-09T04:04:15;8.07;;;4.30;;
69894;SDS011;57172;52.034;5.090;2022-09-09T04:06:43;8.63;;;4.15;;
69894;SDS011;57172;52.034;5.090;2022-09-09T04:09:10;9.23;;;4.40;;
69894;SDS011;57172;52.034;5.090;2022-09-09T04:11:38;8.20;;;4.00;;
69894;SDS011;57172;52.034;5.090;2022-09-09T04:14:04;8.98;;;4.20;;
69894;SDS011;57172;52.034;5.090;2022-09-09T04:16:33;8.17;;;4.07;;
69894;SDS011;57172;52.034;5.090;2022-09-09T04:19:01;8.30;;;4.35;;
69894;SDS011;57172;52.034;5.090;2022-09-09T04:21:30;8.10;;;4.15;;
69894;SDS011;57172;52.034;5.090;2022-09-09T04:23:59;9.30;;;4.70;;
69894;SDS011;57172;52.034;5.090;2022-09-09T04:26:26;11.30;;;4.25;;
69894;SDS011;57172;52.034;5.090;2022-09-09T04:28:52;9.50;;;4.40;;
69894;SDS011;57172;52.034;5.090;2022-09-09T04:31:22;8.60;;;4.60;;
69894;SDS011;57172;52.034;5.090;2022-09-09T04:33:53;8.77;;;4.50;;
69894;SDS011;57172;52.034;5.090;2022-09-09T04:36:20;9.50;;;4.13;;
69894;SDS011;57172;52.034;5.090;2022-09-09T04:38:50;11.32;;;4.00;;
69894;SDS011;57172;52.034;5.090;2022-09-09T04:41:17;8.53;;;3.60;;
69894;SDS011;57172;52.034;5.090;2022-09-09T04:43:46;7.38;;;4.00;;
69894;SDS011;57172;52.034;5.090;2022-09-09T04:46:15;10.15;;;4.35;;
69894;SDS011;57172;52.034;5.090;2022-09-09T04:48:46;9.68;;;4.20;;
69894;SDS011;57172;52.034;5.090;2022-09-09T04:51:16;9.38;;;3.80;;
69894;SDS011;57172;52.034;5.090;2022-09-09T04:53:45;11.43;;;3.90;;
69894;SDS011;57172;52.034;5.090;2022-09-09T04:56:15;7.65;;;3.80;;
69894;SDS011;57172;52.034;5.090;2022-09-09T04:58:51;9.55;;;4.00;;
69894;SDS011;57172;52.034;5.090;2022-09-09T05:01:23;8.18;;;3.55;;
69894;SDS011;57172;52.034;5.090;2022-09-09T05:03:52;8.27;;;3.70;;
69894;SDS011;57172;52.034;5.090;2022-09-09T05:06:22;12.77;;;5.53;;
69894;SDS011;57172;52.034;5.090;2022-09-09T05:08:54;15.73;;;5.53;;
69894;SDS011;57172;52.034;5.090;2022-09-09T05:11:28;9.55;;;4.38;;
69894;SDS011;57172;52.034;5.090;2022-09-09T05:14:03;10.82;;;3.90;;
69894;SDS011;57172;52.034;5.090;2022-09-09T05:16:31;10.57;;;4.00;;
69894;SDS011;57172;52.034;5.090;2022-09-09T05:18:58;10.70;;;3.80;;
69894;SDS011;57172;52.034;5.090;2022-09-09T05:21:33;9.48;;;3.97;;
69894;SDS011;57172;52.034;5.090;2022-09-09T05:24:00;9.32;;;3.70;;
69894;SDS011;57172;52.034;5.090;2022-09-09T05:26:27;10.63;;;3.83;;
69894;SDS011;57172;52.034;5.090;2022-09-09T05:28:56;8.77;;;3.30;;
69894;SDS011;57172;52.034;5.090;2022-09-09T05:31:23;10.20;;;3.90;;
69894;SDS011;57172;52.034;5.090;2022-09-09T05:33:52;10.23;;;3.70;;
69894;SDS011;57172;52.034;5.090;2022-09-09T05:36:20;10.80;;;3.60;;
69894;SDS011;57172;52.034;5.090;2022-09-09T05:38:53;9.07;;;3.40;;
69894;SDS011;57172;52.034;5.090;2022-09-09T05:41:20;9.25;;;3.47;;
69894;SDS011;57172;52.034;5.090;2022-09-09T05:43:51;8.80;;;3.73;;
69894;SDS011;57172;52.034;5.090;2022-09-09T05:46:19;10.30;;;3.45;;
69894;SDS011;57172;52.034;5.090;2022-09-09T05:48:50;10.60;;;3.60;;
69894;SDS011;57172;52.034;5.090;2022-09-09T05:51:21;6.72;;;2.90;;
69894;SDS011;57172;52.034;5.090;2022-09-09T05:53:50;9.38;;;3.20;;
69894;SDS011;57172;52.034;5.090;2022-09-09T05:56:22;6.17;;;2.57;;
69894;SDS011;57172;52.034;5.090;2022-09-09T05:58:51;7.15;;;2.92;;
69894;SDS011;57172;52.034;5.090;2022-09-09T06:01:25;8.23;;;2.97;;
69894;SDS011;57172;52.034;5.090;2022-09-09T06:03:57;10.57;;;3.10;;
69894;SDS011;57172;52.034;5.090;2022-09-09T06:06:25;9.52;;;3.60;;
69894;SDS011;57172;52.034;5.090;2022-09-09T06:08:56;8.40;;;3.00;;
69894;SDS011;57172;52.034;5.090;2022-09-09T06:11:29;8.48;;;3.05;;
69894;SDS011;57172;52.034;5.090;2022-09-09T06:13:58;8.93;;;2.95;;
69894;SDS011;57172;52.034;5.090;2022-09-09T06:16:27;10.98;;;3.20;;
69894;SDS011;57172;52.034;5.090;2022-09-09T06:18:55;9.70;;;3.20;;
69894;SDS011;57172;52.034;5.090;2022-09-09T06:21:25;6.73;;;2.67;;
69894;SDS011;57172;52.034;5.090;2022-09-09T06:23:54;9.90;;;3.30;;
69894;SDS011;57172;52.034;5.090;2022-09-09T06:26:27;9.68;;;2.83;;
69894;SDS011;57172;52.034;5.090;2022-09-09T06:29:00;8.82;;;2.70;;
69894;SDS011;57172;52.034;5.090;2022-09-09T06:31:30;10.95;;;3.45;;
69894;SDS011;57172;52.034;5.090;2022-09-09T06:34:06;8.37;;;2.70;;
69894;SDS011;57172;52.034;5.090;2022-09-09T06:36:37;8.43;;;2.97;;
69894;SDS011;57172;52.034;5.090;2022-09-09T06:39:05;11.70;;;2.80;;
69894;SDS011;57172;52.034;5.090;2022-09-09T06:41:40;8.70;;;2.90;;
69894;SDS011;57172;52.034;5.090;2022-09-09T06:44:21;10.30;;;2.58;;
69894;SDS011;57172;52.034;5.090;2022-09-09T06:46:48;8.30;;;2.53;;
69894;SDS011;57172;52.034;5.090;2022-09-09T06:49:16;7.25;;;2.53;;
69894;SDS011;57172;52.034;5.090;2022-09-09T06:51:45;5.68;;;2.30;;
69894;SDS011;57172;52.034;5.090;2022-09-09T06:54:12;11.48;;;2.47;;
69894;SDS011;57172;52.034;5.090;2022-09-09T06:56:42;13.75;;;2.78;;
69894;SDS011;57172;52.034;5.090;2022-09-09T06:59:19;6.83;;;2.20;;
69894;SDS011;57172;52.034;5.090;2022-09-09T07:01:46;9.27;;;2.50;;
69894;SDS011;57172;52.034;5.090;2022-09-09T07:04:20;7.40;;;2.30;;
69894;SDS011;57172;52.034;5.090;2022-09-09T07:06:47;7.15;;;2.90;;
69894;SDS011;57172;52.034;5.090;2022-09-09T07:09:21;5.75;;;2.28;;
69894;SDS011;57172;52.034;5.090;2022-09-09T07:11:51;7.77;;;2.67;;
69894;SDS011;57172;52.034;5.090;2022-09-09T07:14:22;4.80;;;2.40;;
69894;SDS011;57172;52.034;5.090;2022-09-09T07:16:59;8.18;;;2.50;;
69894;SDS011;57172;52.034;5.090;2022-09-09T07:19:31;10.88;;;4.28;;
69894;SDS011;57172;52.034;5.090;2022-09-09T07:21:58;7.32;;;2.35;;
69894;SDS011;57172;52.034;5.090;2022-09-09T07:24:25;10.40;;;2.77;;
69894;SDS011;57172;52.034;5.090;2022-09-09T07:26:55;9.13;;;3.13;;
69894;SDS011;57172;52.034;5.090;2022-09-09T07:29:22;6.78;;;2.30;;
69894;SDS011;57172;52.034;5.090;2022-09-09T07:31:49;12.65;;;2.80;;
69894;SDS011;57172;52.034;5.090;2022-09-09T07:34:22;5.25;;;2.33;;
69894;SDS011;57172;52.034;5.090;2022-09-09T07:36:49;6.87;;;2.37;;
69894;SDS011;57172;52.034;5.090;2022-09-09T07:39:17;7.50;;;2.58;;
69894;SDS011;57172;52.034;5.090;2022-09-09T07:41:48;6.85;;;2.35;;
69894;SDS011;57172;52.034;5.090;2022-09-09T07:44:19;7.05;;;3.00;;
69894;SDS011;57172;52.034;5.090;2022-09-09T07:46:52;10.98;;;2.97;;
69894;SDS011;57172;52.034;5.090;2022-09-09T07:49:24;5.00;;;2.73;;
69894;SDS011;57172;52.034;5.090;2022-09-09T07:51:59;9.40;;;2.80;;
69894;SDS011;57172;52.034;5.090;2022-09-09T07:54:26;4.90;;;2.25;;
69894;SDS011;57172;52.034;5.090;2022-09-09T07:56:54;7.32;;;2.55;;
69894;SDS011;57172;52.034;5.090;2022-09-09T07:59:23;9.15;;;2.67;;
69894;SDS011;57172;52.034;5.090;2022-09-09T08:01:52;7.27;;;3.50;;
69894;SDS011;57172;52.034;5.090;2022-09-09T08:04:24;7.65;;;2.95;;
69894;SDS011;57172;52.034;5.090;2022-09-09T08:06:54;12.50;;;3.60;;
69894;SDS011;57172;52.034;5.090;2022-09-09T08:09:27;7.15;;;2.70;;
69894;SDS011;57172;52.034;5.090;2022-09-09T08:12:08;6.97;;;2.97;;
69894;SDS011;57172;52.034;5.090;2022-09-09T08:14:35;7.00;;;2.53;;
69894;SDS011;57172;52.034;5.090;2022-09-09T08:17:02;11.07;;;3.15;;
69894;SDS011;57172;52.034;5.090;2022-09-09T08:19:31;7.70;;;2.40;;
69894;SDS011;57172;52.034;5.090;2022-09-09T08:22:01;8.80;;;2.85;;
69894;SDS011;57172;52.034;5.090;2022-09-09T08:24:30;7.45;;;2.60;;
69894;SDS011;57172;52.034;5.090;2022-09-09T08:26:57;7.20;;;2.60;;
69894;SDS011;57172;52.034;5.090;2022-09-09T08:29:24;7.47;;;2.60;;
69894;SDS011;57172;52.034;5.090;2022-09-09T08:31:53;7.75;;;2.63;;
69894;SDS011;57172;52.034;5.090;2022-09-09T08:34:25;7.55;;;2.30;;
69894;SDS011;57172;52.034;5.090;2022-09-09T08:36:54;7.03;;;2.35;;
69894;SDS011;57172;52.034;5.090;2022-09-09T08:39:28;10.43;;;2.60;;
69894;SDS011;57172;52.034;5.090;2022-09-09T08:41:57;8.73;;;2.40;;
69894;SDS011;57172;52.034;5.090;2022-09-09T08:53:01;9.03;;;3.50;;
69894;SDS011;57172;52.034;5.090;2022-09-09T08:55:45;7.70;;;2.38;;
69894;SDS011;57172;52.034;5.090;2022-09-09T08:58:23;9.93;;;2.50;;
69894;SDS011;57172;52.034;5.090;2022-09-09T09:11:38;8.35;;;3.20;;
69894;SDS011;57172;52.034;5.090;2022-09-09T09:14:26;7.10;;;2.60;;
69894;SDS011;57172;52.034;5.090;2022-09-09T09:17:06;8.23;;;3.40;;
69894;SDS011;57172;52.034;5.090;2022-09-09T09:19:40;7.17;;;2.70;;
69894;SDS011;57172;52.034;5.090;2022-09-09T09:22:20;10.55;;;2.50;;
69894;SDS011;57172;52.034;5.090;2022-09-09T09:25:08;7.20;;;2.50;;
69894;SDS011;57172;52.034;5.090;2022-09-09T09:33:26;11.00;;;3.10;;
69894;SDS011;57172;52.034;5.090;2022-09-09T09:35:55;8.45;;;3.05;;
69894;SDS011;57172;52.034;5.090;2022-09-09T09:38:24;10.40;;;3.22;;
69894;SDS011;57172;52.034;5.090;2022-09-09T09:41:12;9.77;;;3.22;;
69894;SDS011;57172;52.034;5.090;2022-09-09T09:43:40;8.45;;;2.85;;
69894;SDS011;57172;52.034;5.090;2022-09-09T09:46:23;14.23;;;4.07;;
69894;SDS011;57172;52.034;5.090;2022-09-09T09:49:00;7.40;;;2.90;;
69894;SDS011;57172;52.034;5.090;2022-09-09T09:51:30;10.07;;;3.10;;
69894;SDS011;57172;52.034;5.090;2022-09-09T09:56:56;6.50;;;2.10;;
69894;SDS011;57172;52.034;5.090;2022-09-09T09:59:44;9.03;;;3.00;;
69894;SDS011;57172;52.034;5.090;2022-09-09T10:02:24;13.27;;;2.70;;
69894;SDS011;57172;52.034;5.090;2022-09-09T10:05:01;8.23;;;2.95;;
69894;SDS011;57172;52.034;5.090;2022-09-09T10:07:28;13.93;;;2.92;;
69894;SDS011;57172;52.034;5.090;2022-09-09T10:09:55;8.50;;;2.50;;
69894;SDS011;57172;52.034;5.090;2022-09-09T10:20:32;10.57;;;4.60;;
69894;SDS011;57172;52.034;5.090;2022-09-09T10:26:08;8.80;;;3.70;;
69894;SDS011;57172;52.034;5.090;2022-09-09T10:29:38;8.88;;;3.60;;
69894;SDS011;57172;52.034;5.090;2022-09-09T10:34:39;8.13;;;3.25;;
69894;SDS011;57172;52.034;5.090;2022-09-09T10:37:32;9.50;;;2.90;;
69894;SDS011;57172;52.034;5.090;2022-09-09T10:46:10;7.40;;;3.30;;
69894;SDS011;57172;52.034;5.090;2022-09-09T10:51:40;6.15;;;2.60;;
69894;SDS011;57172;52.034;5.090;2022-09-09T10:54:25;10.50;;;2.73;;
69894;SDS011;57172;52.034;5.090;2022-09-09T11:00:13;7.50;;;3.65;;
69894;SDS011;57172;52.034;5.090;2022-09-09T11:02:58;9.35;;;3.42;;
69894;SDS011;57172;52.034;5.090;2022-09-09T11:05:47;6.60;;;2.60;;
69894;SDS011;57172;52.034;5.090;2022-09-09T11:08:25;6.50;;;2.40;;
69894;SDS011;57172;52.034;5.090;2022-09-09T11:11:06;5.35;;;3.00;;
69894;SDS011;57172;52.034;5.090;2022-09-09T11:13:43;12.65;;;3.47;;
69894;SDS011;57172;52.034;5.090;2022-09-09T11:19:13;9.65;;;4.93;;
69894;SDS011;57172;52.034;5.090;2022-09-09T11:21:51;7.57;;;2.97;;
69894;SDS011;57172;52.034;5.090;2022-09-09T11:24:23;8.15;;;2.45;;
69894;SDS011;57172;52.034;5.090;2022-09-09T11:27:07;8.18;;;2.97;;
69894;SDS011;57172;52.034;5.090;2022-09-09T11:35:02;6.77;;;2.63;;
69894;SDS011;57172;52.034;5.090;2022-09-09T11:37:53;7.32;;;2.88;;
69894;SDS011;57172;52.034;5.090;2022-09-09T11:40:28;7.43;;;2.90;;
69894;SDS011;57172;52.034;5.090;2022-09-09T11:43:12;6.13;;;2.40;;
69894;SDS011;57172;52.034;5.090;2022-09-09T11:45:50;10.68;;;4.10;;
69894;SDS011;57172;52.034;5.090;2022-09-09T11:48:37;7.13;;;3.47;;
69894;SDS011;57172;52.034;5.090;2022-09-09T11:53:58;8.80;;;3.30;;
69894;SDS011;57172;52.034;5.090;2022-09-09T11:56:48;7.32;;;2.60;;
69894;SDS011;57172;52.034;5.090;2022-09-09T12:07:24;9.20;;;3.10;;
69894;SDS011;57172;52.034;5.090;2022-09-09T12:10:00;12.20;;;2.95;;
69894;SDS011;57172;52.034;5.090;2022-09-09T12:12:46;6.05;;;3.00;;
69894;SDS011;57172;52.034;5.090;2022-09-09T12:17:52;6.00;;;2.60;;
69894;SDS011;57172;52.034;5.090;2022-09-09T12:29:25;7.07;;;3.00;;
69894;SDS011;57172;52.034;5.090;2022-09-09T12:32:24;5.57;;;2.30;;
69894;SDS011;57172;52.034;5.090;2022-09-09T12:34:53;5.07;;;2.50;;
69894;SDS011;57172;52.034;5.090;2022-09-09T12:38:01;6.15;;;2.50;;
69894;SDS011;57172;52.034;5.090;2022-09-09T12:40:30;6.47;;;2.78;;
69894;SDS011;57172;52.034;5.090;2022-09-09T12:43:01;6.73;;;2.80;;
69894;SDS011;57172;52.034;5.090;2022-09-09T12:45:43;6.30;;;2.70;;
69894;SDS011;57172;52.034;5.090;2022-09-09T12:48:11;5.05;;;2.17;;
69894;SDS011;57172;52.034;5.090;2022-09-09T12:50:45;7.90;;;2.85;;
69894;SDS011;57172;52.034;5.090;2022-09-09T12:53:23;4.40;;;2.30;;
69894;SDS011;57172;52.034;5.090;2022-09-09T12:55:57;5.40;;;2.40;;
69894;SDS011;57172;52.034;5.090;2022-09-09T12:58:26;4.55;;;2.50;;
69894;SDS011;57172;52.034;5.090;2022-09-09T13:00:59;5.47;;;2.50;;
69894;SDS011;57172;52.034;5.090;2022-09-09T13:03:27;5.85;;;2.47;;
69894;SDS011;57172;52.034;5.090;2022-09-09T13:05:57;6.88;;;2.42;;
69894;SDS011;57172;52.034;5.090;2022-09-09T13:08:26;6.97;;;2.30;;
69894;SDS011;57172;52.034;5.090;2022-09-09T13:10:54;6.50;;;2.75;;
69894;SDS011;57172;52.034;5.090;2022-09-09T13:13:36;5.45;;;2.50;;
69894;SDS011;57172;52.034;5.090;2022-09-09T13:16:05;6.90;;;2.92;;
69894;SDS011;57172;52.034;5.090;2022-09-09T13:18:44;4.25;;;2.58;;
69894;SDS011;57172;52.034;5.090;2022-09-09T13:21:12;6.20;;;2.87;;
69894;SDS011;57172;52.034;5.090;2022-09-09T13:23:40;8.40;;;3.47;;
69894;SDS011;57172;52.034;5.090;2022-09-09T13:26:24;6.43;;;3.00;;
69894;SDS011;57172;52.034;5.090;2022-09-09T13:28:52;8.57;;;3.53;;
69894;SDS011;57172;52.034;5.090;2022-09-09T13:31:24;7.38;;;2.90;;
69894;SDS011;57172;52.034;5.090;2022-09-09T13:33:55;9.47;;;3.27;;
69894;SDS011;57172;52.034;5.090;2022-09-09T13:36:31;8.07;;;3.15;;
69894;SDS011;57172;52.034;5.090;2022-09-09T13:39:01;8.02;;;3.33;;
69894;SDS011;57172;52.034;5.090;2022-09-09T13:41:32;7.30;;;3.00;;
69894;SDS011;57172;52.034;5.090;2022-09-09T13:44:01;8.27;;;4.00;;
69894;SDS011;57172;52.034;5.090;2022-09-09T13:49:22;8.35;;;3.50;;
69894;SDS011;57172;52.034;5.090;2022-09-09T13:52:01;11.40;;;4.22;;
69894;SDS011;57172;52.034;5.090;2022-09-09T13:54:38;9.70;;;4.28;;
69894;SDS011;57172;52.034;5.090;2022-09-09T13:57:05;9.98;;;4.18;;
69894;SDS011;57172;52.034;5.090;2022-09-09T13:59:44;9.33;;;4.37;;
69894;SDS011;57172;52.034;5.090;2022-09-09T14:02:30;7.57;;;3.70;;
69894;SDS011;57172;52.034;5.090;2022-09-09T14:04:57;11.93;;;4.65;;
69894;SDS011;57172;52.034;5.090;2022-09-09T14:07:24;12.18;;;4.70;;
69894;SDS011;57172;52.034;5.090;2022-09-09T14:09:51;10.13;;;5.07;;
69894;SDS011;57172;52.034;5.090;2022-09-09T14:12:18;9.93;;;4.83;;
69894;SDS011;57172;52.034;5.090;2022-09-09T14:14:46;11.35;;;5.38;;
69894;SDS011;57172;52.034;5.090;2022-09-09T14:17:13;11.05;;;5.45;;
69894;SDS011;57172;52.034;5.090;2022-09-09T14:19:40;12.40;;;4.95;;
69894;SDS011;57172;52.034;5.090;2022-09-09T14:22:07;9.15;;;4.28;;
69894;SDS011;57172;52.034;5.090;2022-09-09T14:24:34;7.20;;;4.40;;
69894;SDS011;57172;52.034;5.090;2022-09-09T14:27:01;7.95;;;4.07;;
69894;SDS011;57172;52.034;5.090;2022-09-09T14:29:28;8.32;;;3.58;;
69894;SDS011;57172;52.034;5.090;2022-09-09T14:31:55;7.00;;;3.50;;
69894;SDS011;57172;52.034;5.090;2022-09-09T14:34:21;6.10;;;2.85;;
69894;SDS011;57172;52.034;5.090;2022-09-09T14:36:48;4.57;;;2.47;;
69894;SDS011;57172;52.034;5.090;2022-09-09T14:39:15;4.65;;;2.03;;
69894;SDS011;57172;52.034;5.090;2022-09-09T14:41:42;6.95;;;2.10;;
69894;SDS011;57172;52.034;5.090;2022-09-09T14:44:09;4.03;;;2.08;;
69894;SDS011;57172;52.034;5.090;2022-09-09T14:46:36;3.58;;;1.88;;
69894;SDS011;57172;52.034;5.090;2022-09-09T14:49:03;2.67;;;1.80;;
69894;SDS011;57172;52.034;5.090;2022-09-09T14:51:30;4.85;;;2.13;;
69894;SDS011;57172;52.034;5.090;2022-09-09T14:53:58;4.57;;;2.15;;
69894;SDS011;57172;52.034;5.090;2022-09-09T14:56:27;5.30;;;2.10;;
69894;SDS011;57172;52.034;5.090;2022-09-09T14:58:56;5.80;;;2.40;;
69894;SDS011;57172;52.034;5.090;2022-09-09T15:01:24;5.07;;;2.33;;
69894;SDS011;57172;52.034;5.090;2022-09-09T15:03:55;4.50;;;2.08;;
69894;SDS011;57172;52.034;5.090;2022-09-09T15:06:24;6.60;;;2.25;;
69894;SDS011;57172;52.034;5.090;2022-09-09T15:08:53;8.68;;;2.35;;
69894;SDS011;57172;52.034;5.090;2022-09-09T15:11:20;5.05;;;2.00;;
69894;SDS011;57172;52.034;5.090;2022-09-09T15:13:50;4.27;;;1.70;;
69894;SDS011;57172;52.034;5.090;2022-09-09T15:16:21;3.65;;;2.00;;
69894;SDS011;57172;52.034;5.090;2022-09-09T15:18:51;4.78;;;2.00;;
69894;SDS011;57172;52.034;5.090;2022-09-09T15:21:21;3.28;;;1.90;;
69894;SDS011;57172;52.034;5.090;2022-09-09T15:23:49;4.97;;;2.10;;
69894;SDS011;57172;52.034;5.090;2022-09-09T15:26:17;4.63;;;2.00;;
69894;SDS011;57172;52.034;5.090;2022-09-09T15:28:45;4.43;;;2.05;;
69894;SDS011;57172;52.034;5.090;2022-09-09T15:34:03;5.47;;;2.28;;
69894;SDS011;57172;52.034;5.090;2022-09-09T15:36:35;4.43;;;2.38;;
69894;SDS011;57172;52.034;5.090;2022-09-09T15:39:04;7.30;;;2.50;;
69894;SDS011;57172;52.034;5.090;2022-09-09T15:41:33;5.55;;;2.58;;
69894;SDS011;57172;52.034;5.090;2022-09-09T15:44:01;4.35;;;2.50;;
69894;SDS011;57172;52.034;5.090;2022-09-09T15:51:30;6.40;;;2.10;;
69894;SDS011;57172;52.034;5.090;2022-09-09T15:54:16;4.50;;;1.98;;
69894;SDS011;57172;52.034;5.090;2022-09-09T15:56:45;4.60;;;1.90;;
69894;SDS011;57172;52.034;5.090;2022-09-09T15:59:14;4.15;;;2.10;;
69894;SDS011;57172;52.034;5.090;2022-09-09T16:01:42;5.63;;;2.25;;
69894;SDS011;57172;52.034;5.090;2022-09-09T16:04:09;5.43;;;2.50;;
69894;SDS011;57172;52.034;5.090;2022-09-09T16:06:36;5.65;;;2.20;;
69894;SDS011;57172;52.034;5.090;2022-09-09T16:09:04;6.25;;;2.38;;
69894;SDS011;57172;52.034;5.090;2022-09-09T16:11:33;8.38;;;2.50;;
69894;SDS011;57172;52.034;5.090;2022-09-09T16:14:03;5.75;;;2.67;;
69894;SDS011;57172;52.034;5.090;2022-09-09T16:16:31;5.77;;;2.30;;
69894;SDS011;57172;52.034;5.090;2022-09-09T16:18:59;8.15;;;3.00;;
69894;SDS011;57172;52.034;5.090;2022-09-09T16:21:34;5.10;;;2.50;;
69894;SDS011;57172;52.034;5.090;2022-09-09T16:24:09;6.60;;;2.58;;
69894;SDS011;57172;52.034;5.090;2022-09-09T16:26:39;6.32;;;2.40;;
69894;SDS011;57172;52.034;5.090;2022-09-09T16:29:12;5.63;;;2.80;;
69894;SDS011;57172;52.034;5.090;2022-09-09T16:31:40;5.88;;;2.90;;
69894;SDS011;57172;52.034;5.090;2022-09-09T16:34:08;8.60;;;3.10;;
69894;SDS011;57172;52.034;5.090;2022-09-09T16:36:36;6.57;;;3.20;;
69894;SDS011;57172;52.034;5.090;2022-09-09T16:39:06;7.63;;;3.42;;
69894;SDS011;57172;52.034;5.090;2022-09-09T16:41:35;7.47;;;3.30;;
69894;SDS011;57172;52.034;5.090;2022-09-09T16:44:04;9.27;;;3.30;;
69894;SDS011;57172;52.034;5.090;2022-09-09T16:46:33;6.10;;;3.28;;
69894;SDS011;57172;52.034;5.090;2022-09-09T16:49:03;7.45;;;3.70;;
69894;SDS011;57172;52.034;5.090;2022-09-09T16:51:35;9.65;;;3.70;;
69894;SDS011;57172;52.034;5.090;2022-09-09T16:54:05;7.33;;;3.00;;
69894;SDS011;57172;52.034;5.090;2022-09-09T16:56:34;6.65;;;2.97;;
69894;SDS011;57172;52.034;5.090;2022-09-09T16:59:04;6.72;;;2.88;;
69894;SDS011;57172;52.034;5.090;2022-09-09T17:01:34;7.30;;;2.90;;
69894;SDS011;57172;52.034;5.090;2022-09-09T17:04:08;6.47;;;3.05;;
69894;SDS011;57172;52.034;5.090;2022-09-09T17:06:37;5.87;;;2.50;;
69894;SDS011;57172;52.034;5.090;2022-09-09T17:09:09;6.93;;;2.97;;
69894;SDS011;57172;52.034;5.090;2022-09-09T17:11:37;7.63;;;2.70;;
69894;SDS011;57172;52.034;5.090;2022-09-09T17:14:05;5.55;;;2.88;;
69894;SDS011;57172;52.034;5.090;2022-09-09T17:16:35;5.97;;;2.75;;
69894;SDS011;57172;52.034;5.090;2022-09-09T17:19:02;7.43;;;2.60;;
69894;SDS011;57172;52.034;5.090;2022-09-09T17:21:30;6.05;;;3.08;;
69894;SDS011;57172;52.034;5.090;2022-09-09T17:23:59;6.43;;;2.97;;
69894;SDS011;57172;52.034;5.090;2022-09-09T17:26:27;6.10;;;3.13;;
69894;SDS011;57172;52.034;5.090;2022-09-09T17:28:57;5.85;;;2.55;;
69894;SDS011;57172;52.034;5.090;2022-09-09T17:31:27;9.03;;;2.70;;
69894;SDS011;57172;52.034;5.090;2022-09-09T17:33:55;5.70;;;2.88;;